Bryce Canyon Airport
KBCE : now visible

Airfield :











YOU CAN JOIN US ON...

 
LOGIN :

Register | Disclaimer

   EN    FR    IT 

 









Legend :    VFR   Marginal VFR   IFR   Intensive IFR   Very Intensive IFR
Visi :
Ceiling :
>= 8 km
>= 3000ft
5 to 8 km
1000 to 3000 ft
1500m to 5 km
500 to 1000 ft
800 to 1500m
200 to 500 ft
< 800m
< 200 ft
Symbols :   Thunderstorms  Fog  Heavy snow  Heavy precipitations  Wind > 20 kt






- Airport Elevation : 7590 ft


KBCE - Bryce Canyon

CURRENT METAR :
  • 150353Z AUTO 24006KT 10SM CLR M02/M12 A2988 RMK AO2 SLP070 T10221122

EXPIRED METARs :
  • 150253Z AUTO 31006KT 10SM CLR 03/M11 A2986 RMK AO2 SLP049 T00331111 51008
  • 150153Z AUTO 27008KT 10SM CLR 06/M11 A2986 RMK AO2 SLP048 T00561106

TAF KBCE
Valid from the 15 at 00:00 until the 16 at 00:00 UTC


142329Z 1500/1524 24022G30KT P6SM FEW060 SCT080
FM150300 27009KT P6SM BKN080
FM151800 30015G25KT P6SM VCSH BKN090
KZLC FIR / North America



MET'MAP, your aeronautical weather chart ! - Copyright ORBIFLY December 2007 - Disclaimer

ORBIFLY MET'MAP TEAM :

Programming & Development : Alexandra Zaïnal
Concept & original design : Baudouin d'Aumeries
Assistance for programming : Marc-Olivier Méhu
Technical & hardware support : Manuel Goepfert

Contact : metmap@orbifly.com




SOURCES & CREDITS :

   NOAA       Earth
Advisory